Airport Name : Port Elizabeth Intl

Other Name : Port Elizabeth

ICAO : FAPE

IATA : PLZ

FAA :

Latitude : -33.984919

Longitude : 25.617275

Country : South Africa

Local Date and Time : 25 Jun 2024 08:39

 

TAF (Terminal Aerodrome Forecast)

TAF FAPE 250400Z 2506/2606 24009KT CAVOK TX19/2512Z TN13/2603Z TEMPO 2522/2603 4000 BR BKN003

 

METAR (METeorological Aerodrome Report)

FAPE 250600Z 24007KT 9999 FEW014 15/13 Q1031 NOSIG

FAPE 250500Z 26009KT CAVOK 15/12 Q1031 NOSIG

FAPE 250400Z 26008KT CAVOK 15/12 Q1030 NOSIG

FAPE 250300Z 25013KT CAVOK 15/13 Q1029 NOSIG